Forside
METAR-TAF:

METAR-TAF

Lufthavne :

Vientiane, Laos

Breddekreds: 17-57N, længdekreds: 102-34E, højde: 171 m

Aktuelle vejr

Denne rapport blev lavet for 25 minutter siden, kl. 00:30 UTC
Vind 2 kt fra østnordøst
Temperatur 26°C
Fugtighed 100%
Tryk 1002 hPa
Sigt: 5000 m
Spredte skyer i en højde af 1000 ft
Spredte skyer i en højde af 5000 ft
dis

METAR: VLVT 180030Z 06002KT 5000 BR SCT010 SCT050 26/26 Q1002 NOSIG

Tid: 07:55 (00:55 UTC)

Vejrudsigter

Denne rapport blev lavet for 1 time og 55 minutter siden, kl. 23:00 UTC
Foreløbig gælder fra 18 på 00 UTC til 18 på 24 UTC
Vind 4 kt fra østnordøst
Sigt: 7000 m
Spredte skyer i en højde af 1600 ft
Brudte skyer i en højde af 8300 ft
Midlertidig
fra 18 på 00 UTC til 18 på 03 UTC
Sigt: 4000 m
Spredte skyer i en højde af 1000 ft
Overskyet i en højde af 8300 ft
dis

TAF: VLVT 172300Z 1800/1824 06004KT 7000 SCT016 BKN083 TEMPO 1800/1803 4000 BR SCT010 OVC083

Vejrobservationer og prognoser fra mere end 4000 lufthavne (METAR og TAF).

De gule og røde prikker repræsenterer de meteorologiske stationer.

Flyt musen over at se navnet på stationen.

Så klik over at se vejr observationer og prognoser.

At skifte det kort: Klik på de grønne knapper med et sort kors for at zoome ind; på den grønne knap med en bindestreg for at zoome ud; eller på de grønne pile for tilstødende kort.


METAR-TAF: